Greenup, Illinois
Current Conditions -  °F | °C
As of 8:53 AM on Thursday 23 Oct 2014 (Local Time) from KMTO Reporting Station
Clear Clear  
Wind Chill: 41°   Ceiling: Unl
Heat Index: 45°   Visibility: 10mi
Dew Point: 42°   Wind: 8mph
Humidity: 90%   Direction: 170°S
Pressure: 30.24"   Gusts: NA
Location:  39.25°N, 88.16°W
Report Text: KMTO 231353Z AUTO 17007KT 10SM CLR 07/06 A3024 RMK AO2 SLP242 T00720056
Loading
Personal Weather Stations






























Interactive Weather Map
Tropical Storm Tracking
New forecast layout! Learn more

10-Day Weather Forecast

Advertisements
Track Severe Weather on mobile